sensor_id;sensor_type;location;lat;lon;timestamp;pressure;altitude;pressure_sealevel;temperature;humidity
73085;BME280;62974;49.460;10.892;2023-04-07T00:02:17;97857.41;;;3.13;62.31
73085;BME280;62974;49.460;10.892;2023-04-07T00:04:46;97855.47;;;3.41;62.29
73085;BME280;62974;49.460;10.892;2023-04-07T00:07:14;97853.34;;;3.45;62.32
73085;BME280;62974;49.460;10.892;2023-04-07T00:09:41;97842.63;;;3.54;61.88
73085;BME280;62974;49.460;10.892;2023-04-07T00:12:09;97842.78;;;3.53;62.22
73085;BME280;62974;49.460;10.892;2023-04-07T00:14:36;97841.75;;;3.71;61.53
73085;BME280;62974;49.460;10.892;2023-04-07T00:17:04;97844.66;;;2.64;65.02
73085;BME280;62974;49.460;10.892;2023-04-07T00:19:33;97841.72;;;2.40;66.15
73085;BME280;62974;49.460;10.892;2023-04-07T00:22:02;97840.38;;;2.98;65.16
73085;BME280;62974;49.460;10.892;2023-04-07T00:24:29;97831.28;;;3.26;63.00
73085;BME280;62974;49.460;10.892;2023-04-07T00:27:00;97833.81;;;3.28;63.12
73085;BME280;62974;49.460;10.892;2023-04-07T00:29:27;97833.81;;;3.28;62.46
73085;BME280;62974;49.460;10.892;2023-04-07T00:31:55;97820.44;;;3.38;62.33
73085;BME280;62974;49.460;10.892;2023-04-07T00:34:23;97822.03;;;3.30;62.80
73085;BME280;62974;49.460;10.892;2023-04-07T00:36:50;97818.31;;;3.41;61.99
73085;BME280;62974;49.460;10.892;2023-04-07T00:39:20;97821.13;;;3.40;61.87
73085;BME280;62974;49.460;10.892;2023-04-07T00:41:47;97811.72;;;3.45;62.14
73085;BME280;62974;49.460;10.892;2023-04-07T00:44:16;97817.84;;;3.46;62.45
73085;BME280;62974;49.460;10.892;2023-04-07T00:46:46;97812.56;;;3.28;63.53
73085;BME280;62974;49.460;10.892;2023-04-07T00:49:14;97817.69;;;3.21;63.68
73085;BME280;62974;49.460;10.892;2023-04-07T00:51:43;97816.78;;;3.13;64.17
73085;BME280;62974;49.460;10.892;2023-04-07T00:54:11;97814.44;;;2.92;63.75
73085;BME280;62974;49.460;10.892;2023-04-07T00:56:40;97806.38;;;3.19;62.68
73085;BME280;62974;49.460;10.892;2023-04-07T00:59:09;97811.91;;;3.08;64.00
73085;BME280;62974;49.460;10.892;2023-04-07T01:01:43;97800.09;;;3.20;63.32
73085;BME280;62974;49.460;10.892;2023-04-07T01:04:19;97806.34;;;3.37;63.08
73085;BME280;62974;49.460;10.892;2023-04-07T01:06:50;97805.75;;;3.25;63.69
73085;BME280;62974;49.460;10.892;2023-04-07T01:09:24;97801.69;;;3.39;62.98
73085;BME280;62974;49.460;10.892;2023-04-07T01:12:04;97799.16;;;3.29;63.27
73085;BME280;62974;49.460;10.892;2023-04-07T01:14:39;97795.69;;;3.29;63.04
73085;BME280;62974;49.460;10.892;2023-04-07T01:17:09;97786.72;;;3.30;62.99
73085;BME280;62974;49.460;10.892;2023-04-07T01:19:39;97778.66;;;3.40;63.54
73085;BME280;62974;49.460;10.892;2023-04-07T01:22:15;97788.47;;;3.47;62.47
73085;BME280;62974;49.460;10.892;2023-04-07T01:25:02;97791.78;;;3.41;63.28
73085;BME280;62974;49.460;10.892;2023-04-07T01:27:37;97787.91;;;2.21;68.06
73085;BME280;62974;49.460;10.892;2023-04-07T01:30:12;97786.81;;;3.20;65.32
73085;BME280;62974;49.460;10.892;2023-04-07T01:32:44;97791.09;;;3.13;65.16
73085;BME280;62974;49.460;10.892;2023-04-07T01:35:13;97791.59;;;3.17;65.45
73085;BME280;62974;49.460;10.892;2023-04-07T01:37:42;97791.47;;;1.29;71.37
73085;BME280;62974;49.460;10.892;2023-04-07T01:40:12;97781.97;;;2.10;69.31
73085;BME280;62974;49.460;10.892;2023-04-07T01:42:41;97782.16;;;3.14;65.64
73085;BME280;62974;49.460;10.892;2023-04-07T01:45:09;97786.28;;;3.17;64.90
73085;BME280;62974;49.460;10.892;2023-04-07T01:47:38;97772.00;;;3.10;65.03
73085;BME280;62974;49.460;10.892;2023-04-07T01:50:09;97764.63;;;3.04;64.91
73085;BME280;62974;49.460;10.892;2023-04-07T01:52:38;97762.28;;;3.18;64.54
73085;BME280;62974;49.460;10.892;2023-04-07T01:55:07;97763.47;;;3.24;64.58
73085;BME280;62974;49.460;10.892;2023-04-07T01:57:35;97760.72;;;3.34;64.20
73085;BME280;62974;49.460;10.892;2023-04-07T02:00:03;97764.66;;;3.29;64.29
73085;BME280;62974;49.460;10.892;2023-04-07T02:02:32;97765.75;;;3.19;64.78
73085;BME280;62974;49.460;10.892;2023-04-07T02:05:08;97759.81;;;3.25;64.38
73085;BME280;62974;49.460;10.892;2023-04-07T02:07:43;97754.78;;;3.14;64.48
73085;BME280;62974;49.460;10.892;2023-04-07T02:10:14;97752.66;;;3.17;65.42
73085;BME280;62974;49.460;10.892;2023-04-07T02:12:43;97752.00;;;3.23;64.54
73085;BME280;62974;49.460;10.892;2023-04-07T02:15:12;97751.13;;;3.15;65.19
73085;BME280;62974;49.460;10.892;2023-04-07T02:17:43;97747.84;;;3.21;65.28
73085;BME280;62974;49.460;10.892;2023-04-07T02:20:15;97745.25;;;3.29;64.60
73085;BME280;62974;49.460;10.892;2023-04-07T02:22:43;97747.81;;;3.13;65.04
73085;BME280;62974;49.460;10.892;2023-04-07T02:25:20;97752.69;;;3.25;65.55
73085;BME280;62974;49.460;10.892;2023-04-07T02:27:48;97754.00;;;3.21;64.85
73085;BME280;62974;49.460;10.892;2023-04-07T02:30:16;97754.34;;;3.26;65.28
73085;BME280;62974;49.460;10.892;2023-04-07T02:32:43;97750.50;;;3.21;65.38
73085;BME280;62974;49.460;10.892;2023-04-07T02:35:15;97745.78;;;3.33;64.26
73085;BME280;62974;49.460;10.892;2023-04-07T02:37:43;97757.69;;;3.28;64.64
73085;BME280;62974;49.460;10.892;2023-04-07T02:40:11;97756.53;;;3.31;65.50
73085;BME280;62974;49.460;10.892;2023-04-07T02:42:39;97757.00;;;3.01;65.99
73085;BME280;62974;49.460;10.892;2023-04-07T02:45:07;97760.09;;;0.97;75.46
73085;BME280;62974;49.460;10.892;2023-04-07T02:47:36;97752.25;;;2.33;70.82
73085;BME280;62974;49.460;10.892;2023-04-07T02:50:05;97747.09;;;2.85;68.90
73085;BME280;62974;49.460;10.892;2023-04-07T02:52:34;97750.84;;;3.00;67.21
73085;BME280;62974;49.460;10.892;2023-04-07T02:55:01;97749.47;;;3.14;65.73
73085;BME280;62974;49.460;10.892;2023-04-07T02:57:29;97750.19;;;2.98;66.60
73085;BME280;62974;49.460;10.892;2023-04-07T02:59:57;97749.88;;;3.01;67.13
73085;BME280;62974;49.460;10.892;2023-04-07T03:02:24;97757.19;;;3.07;66.79
73085;BME280;62974;49.460;10.892;2023-04-07T03:04:52;97756.22;;;3.08;66.28
73085;BME280;62974;49.460;10.892;2023-04-07T03:07:19;97751.72;;;2.48;69.36
73085;BME280;62974;49.460;10.892;2023-04-07T03:09:48;97751.91;;;3.07;66.70
73085;BME280;62974;49.460;10.892;2023-04-07T03:12:16;97744.38;;;3.20;66.36
73085;BME280;62974;49.460;10.892;2023-04-07T03:14:44;97744.50;;;3.19;66.73
73085;BME280;62974;49.460;10.892;2023-04-07T03:17:11;97747.09;;;2.67;67.62
73085;BME280;62974;49.460;10.892;2023-04-07T03:19:39;97741.41;;;2.98;68.01
73085;BME280;62974;49.460;10.892;2023-04-07T03:22:06;97740.44;;;3.07;66.63
73085;BME280;62974;49.460;10.892;2023-04-07T03:24:35;97745.53;;;1.94;70.26
73085;BME280;62974;49.460;10.892;2023-04-07T03:27:06;97739.31;;;2.66;70.10
73085;BME280;62974;49.460;10.892;2023-04-07T03:29:33;97739.72;;;2.97;68.48
73085;BME280;62974;49.460;10.892;2023-04-07T03:32:01;97728.84;;;3.08;67.28
73085;BME280;62974;49.460;10.892;2023-04-07T03:34:29;97738.50;;;3.09;66.72
73085;BME280;62974;49.460;10.892;2023-04-07T03:36:56;97726.78;;;3.19;65.83
73085;BME280;62974;49.460;10.892;2023-04-07T03:39:24;97729.16;;;3.30;66.14
73085;BME280;62974;49.460;10.892;2023-04-07T03:41:51;97732.97;;;3.28;65.73
73085;BME280;62974;49.460;10.892;2023-04-07T03:44:20;97732.97;;;3.28;65.69
73085;BME280;62974;49.460;10.892;2023-04-07T03:46:48;97733.25;;;3.17;66.97
73085;BME280;62974;49.460;10.892;2023-04-07T03:49:15;97729.38;;;3.11;66.96
73085;BME280;62974;49.460;10.892;2023-04-07T03:51:43;97729.91;;;3.15;66.83
73085;BME280;62974;49.460;10.892;2023-04-07T03:54:10;97728.91;;;3.16;67.78
73085;BME280;62974;49.460;10.892;2023-04-07T03:56:38;97731.63;;;3.24;66.82
73085;BME280;62974;49.460;10.892;2023-04-07T03:59:06;97732.66;;;3.05;67.25
73085;BME280;62974;49.460;10.892;2023-04-07T04:01:35;97725.47;;;3.23;67.39
73085;BME280;62974;49.460;10.892;2023-04-07T04:04:02;97734.84;;;2.13;72.00
73085;BME280;62974;49.460;10.892;2023-04-07T04:06:30;97726.66;;;3.03;67.63
73085;BME280;62974;49.460;10.892;2023-04-07T04:08:58;97729.66;;;3.26;67.09
73085;BME280;62974;49.460;10.892;2023-04-07T04:11:25;97720.69;;;3.27;66.47
73085;BME280;62974;49.460;10.892;2023-04-07T04:13:53;97719.38;;;3.31;65.97
73085;BME280;62974;49.460;10.892;2023-04-07T04:16:21;97722.34;;;3.28;66.17
73085;BME280;62974;49.460;10.892;2023-04-07T04:18:50;97728.97;;;3.24;67.66
73085;BME280;62974;49.460;10.892;2023-04-07T04:21:17;97722.69;;;3.25;67.23
73085;BME280;62974;49.460;10.892;2023-04-07T04:23:45;97730.31;;;3.28;66.60
73085;BME280;62974;49.460;10.892;2023-04-07T04:26:12;97724.78;;;2.70;69.04
73085;BME280;62974;49.460;10.892;2023-04-07T04:28:41;97731.06;;;3.12;68.46
73085;BME280;62974;49.460;10.892;2023-04-07T04:31:10;97724.19;;;3.27;67.16
73085;BME280;62974;49.460;10.892;2023-04-07T04:33:37;97720.69;;;3.27;67.62
73085;BME280;62974;49.460;10.892;2023-04-07T04:36:07;97727.00;;;3.26;67.78
73085;BME280;62974;49.460;10.892;2023-04-07T04:38:34;97723.97;;;3.21;67.56
73085;BME280;62974;49.460;10.892;2023-04-07T04:41:02;97723.34;;;3.27;66.75
73085;BME280;62974;49.460;10.892;2023-04-07T04:43:29;97717.66;;;3.14;68.07
73085;BME280;62974;49.460;10.892;2023-04-07T04:46:00;97724.34;;;3.00;69.20
73085;BME280;62974;49.460;10.892;2023-04-07T04:48:28;97731.97;;;2.07;71.74
73085;BME280;62974;49.460;10.892;2023-04-07T04:50:56;97724.78;;;2.96;69.64
73085;BME280;62974;49.460;10.892;2023-04-07T04:53:25;97725.59;;;3.14;68.64
73085;BME280;62974;49.460;10.892;2023-04-07T04:55:53;97724.44;;;3.16;69.09
73085;BME280;62974;49.460;10.892;2023-04-07T04:58:21;97727.16;;;3.24;68.21
73085;BME280;62974;49.460;10.892;2023-04-07T05:00:48;97730.31;;;3.28;67.99
73085;BME280;62974;49.460;10.892;2023-04-07T05:03:16;97738.47;;;1.85;73.86
73085;BME280;62974;49.460;10.892;2023-04-07T05:05:46;97731.69;;;1.55;75.71
73085;BME280;62974;49.460;10.892;2023-04-07T05:08:13;97722.44;;;2.14;75.46
73085;BME280;62974;49.460;10.892;2023-04-07T05:10:45;97719.28;;;1.83;76.30
73085;BME280;62974;49.460;10.892;2023-04-07T05:13:13;97720.03;;;2.38;73.49
73085;BME280;62974;49.460;10.892;2023-04-07T05:15:41;97713.88;;;2.99;70.10
73085;BME280;62974;49.460;10.892;2023-04-07T05:18:08;97721.16;;;2.97;69.97
73085;BME280;62974;49.460;10.892;2023-04-07T05:20:36;97730.69;;;3.07;69.64
73085;BME280;62974;49.460;10.892;2023-04-07T05:23:04;97727.56;;;3.12;69.93
73085;BME280;62974;49.460;10.892;2023-04-07T05:25:31;97722.22;;;3.29;69.06
73085;BME280;62974;49.460;10.892;2023-04-07T05:28:00;97724.31;;;3.18;69.94
73085;BME280;62974;49.460;10.892;2023-04-07T05:30:28;97728.06;;;3.15;70.82
73085;BME280;62974;49.460;10.892;2023-04-07T05:32:55;97730.63;;;2.38;76.92
73085;BME280;62974;49.460;10.892;2023-04-07T05:35:23;97731.66;;;2.27;77.26
73085;BME280;62974;49.460;10.892;2023-04-07T05:37:50;97720.81;;;3.17;71.16
73085;BME280;62974;49.460;10.892;2023-04-07T05:40:18;97727.63;;;2.94;74.08
73085;BME280;62974;49.460;10.892;2023-04-07T05:42:45;97711.88;;;3.26;71.25
73085;BME280;62974;49.460;10.892;2023-04-07T05:45:14;97726.75;;;2.15;79.07
73085;BME280;62974;49.460;10.892;2023-04-07T05:47:42;97719.47;;;2.52;77.55
73085;BME280;62974;49.460;10.892;2023-04-07T05:50:09;97719.94;;;2.91;75.17
73085;BME280;62974;49.460;10.892;2023-04-07T05:52:39;97723.38;;;3.35;72.70
73085;BME280;62974;49.460;10.892;2023-04-07T05:55:07;97724.22;;;3.36;72.33
73085;BME280;62974;49.460;10.892;2023-04-07T05:57:35;97726.88;;;2.84;75.70
73085;BME280;62974;49.460;10.892;2023-04-07T06:00:03;97727.91;;;2.91;76.14
73085;BME280;62974;49.460;10.892;2023-04-07T06:02:32;97717.84;;;3.46;72.89
73085;BME280;62974;49.460;10.892;2023-04-07T06:05:00;97723.94;;;2.52;77.62
73085;BME280;62974;49.460;10.892;2023-04-07T06:07:27;97723.72;;;3.06;76.73
73085;BME280;62974;49.460;10.892;2023-04-07T06:09:57;97729.91;;;2.71;77.84
73085;BME280;62974;49.460;10.892;2023-04-07T06:12:24;97727.38;;;2.88;77.60
73085;BME280;62974;49.460;10.892;2023-04-07T06:14:55;97721.78;;;3.42;73.98
73085;BME280;62974;49.460;10.892;2023-04-07T06:17:23;97725.53;;;3.06;76.77
73085;BME280;62974;49.460;10.892;2023-04-07T06:19:52;97733.72;;;3.38;74.49
73085;BME280;62974;49.460;10.892;2023-04-07T06:22:19;97727.00;;;3.26;73.85
73085;BME280;62974;49.460;10.892;2023-04-07T06:24:47;97729.78;;;2.99;76.67
73085;BME280;62974;49.460;10.892;2023-04-07T06:27:15;97721.94;;;3.41;73.53
73085;BME280;62974;49.460;10.892;2023-04-07T06:29:46;97728.41;;;3.38;74.25
73085;BME280;62974;49.460;10.892;2023-04-07T06:32:14;97727.09;;;3.42;73.65
73085;BME280;62974;49.460;10.892;2023-04-07T06:34:42;97722.97;;;3.48;74.54
73085;BME280;62974;49.460;10.892;2023-04-07T06:37:11;97723.19;;;3.54;74.17
73085;BME280;62974;49.460;10.892;2023-04-07T06:39:38;97724.44;;;3.42;73.91
73085;BME280;62974;49.460;10.892;2023-04-07T06:42:06;97724.25;;;3.69;73.40
73085;BME280;62974;49.460;10.892;2023-04-07T06:44:33;97723.19;;;3.96;73.71
73085;BME280;62974;49.460;10.892;2023-04-07T06:47:01;97719.59;;;4.13;72.14
73085;BME280;62974;49.460;10.892;2023-04-07T06:49:31;97713.78;;;4.10;74.14
73085;BME280;62974;49.460;10.892;2023-04-07T06:52:03;97727.88;;;4.18;75.52
73085;BME280;62974;49.460;10.892;2023-04-07T06:54:32;97722.09;;;4.23;74.68
73085;BME280;62974;49.460;10.892;2023-04-07T06:56:59;97711.84;;;4.44;72.14
73085;BME280;62974;49.460;10.892;2023-04-07T06:59:27;97719.31;;;4.41;72.74
73085;BME280;62974;49.460;10.892;2023-04-07T07:01:55;97712.19;;;4.57;72.85
73085;BME280;62974;49.460;10.892;2023-04-07T07:04:23;97707.84;;;4.56;70.55
73085;BME280;62974;49.460;10.892;2023-04-07T07:06:50;97711.84;;;4.68;71.70
73085;BME280;62974;49.460;10.892;2023-04-07T07:09:18;97714.50;;;4.68;72.02
73085;BME280;62974;49.460;10.892;2023-04-07T07:11:49;97720.31;;;4.80;72.78
73085;BME280;62974;49.460;10.892;2023-04-07T07:14:17;97713.34;;;4.87;71.98
73085;BME280;62974;49.460;10.892;2023-04-07T07:16:46;97711.03;;;4.84;69.46
73085;BME280;62974;49.460;10.892;2023-04-07T07:19:13;97714.00;;;5.05;71.35
73085;BME280;62974;49.460;10.892;2023-04-07T07:21:43;97713.94;;;5.30;72.18
73085;BME280;62974;49.460;10.892;2023-04-07T07:24:11;97713.94;;;5.30;70.49
73085;BME280;62974;49.460;10.892;2023-04-07T07:26:41;97712.44;;;5.35;70.84
73085;BME280;62974;49.460;10.892;2023-04-07T07:29:11;97707.09;;;5.43;69.47
73085;BME280;62974;49.460;10.892;2023-04-07T07:31:39;97709.09;;;5.49;68.97
73085;BME280;62974;49.460;10.892;2023-04-07T07:34:08;97705.34;;;5.66;68.68
73085;BME280;62974;49.460;10.892;2023-04-07T07:36:36;97698.69;;;5.71;67.74
73085;BME280;62974;49.460;10.892;2023-04-07T07:39:04;97700.56;;;6.09;66.79
73085;BME280;62974;49.460;10.892;2023-04-07T07:41:31;97704.34;;;6.14;65.38
73085;BME280;62974;49.460;10.892;2023-04-07T07:44:24;97708.72;;;6.07;64.59
73085;BME280;62974;49.460;10.892;2023-04-07T07:46:52;97707.81;;;6.23;64.49
73085;BME280;62974;49.460;10.892;2023-04-07T07:49:19;97714.16;;;6.14;65.90
73085;BME280;62974;49.460;10.892;2023-04-07T07:51:47;97705.13;;;5.84;66.79
73085;BME280;62974;49.460;10.892;2023-04-07T07:54:14;97701.28;;;6.26;67.01
73085;BME280;62974;49.460;10.892;2023-04-07T07:56:42;97706.91;;;6.31;66.17
73085;BME280;62974;49.460;10.892;2023-04-07T07:59:12;97713.88;;;6.09;66.85
73085;BME280;62974;49.460;10.892;2023-04-07T08:01:43;97714.41;;;6.58;66.05
73085;BME280;62974;49.460;10.892;2023-04-07T08:04:12;97718.56;;;6.60;66.30
73085;BME280;62974;49.460;10.892;2023-04-07T08:06:39;97710.00;;;6.20;67.30
73085;BME280;62974;49.460;10.892;2023-04-07T08:09:07;97704.69;;;6.42;66.05
73085;BME280;62974;49.460;10.892;2023-04-07T08:11:37;97704.19;;;6.61;65.96
73085;BME280;62974;49.460;10.892;2023-04-07T08:14:05;97700.56;;;6.77;64.75
73085;BME280;62974;49.460;10.892;2023-04-07T08:16:37;97698.34;;;6.66;64.39
73085;BME280;62974;49.460;10.892;2023-04-07T08:19:06;97703.31;;;6.69;64.10
73085;BME280;62974;49.460;10.892;2023-04-07T08:21:33;97708.69;;;6.61;63.97
73085;BME280;62974;49.460;10.892;2023-04-07T08:24:03;97705.81;;;6.71;64.00
73085;BME280;62974;49.460;10.892;2023-04-07T08:26:31;97709.38;;;6.63;62.76
73085;BME280;62974;49.460;10.892;2023-04-07T08:29:02;97707.59;;;6.78;62.69
73085;BME280;62974;49.460;10.892;2023-04-07T08:31:29;97712.31;;;6.45;64.06
73085;BME280;62974;49.460;10.892;2023-04-07T08:33:57;97704.56;;;6.81;63.12
73085;BME280;62974;49.460;10.892;2023-04-07T08:36:26;97709.97;;;7.11;64.16
73085;BME280;62974;49.460;10.892;2023-04-07T08:38:55;97704.03;;;7.23;63.14
73085;BME280;62974;49.460;10.892;2023-04-07T08:41:28;97704.56;;;7.19;63.36
73085;BME280;62974;49.460;10.892;2023-04-07T08:43:56;97698.66;;;7.08;62.51
73085;BME280;62974;49.460;10.892;2023-04-07T08:46:24;97704.00;;;7.08;62.96
73085;BME280;62974;49.460;10.892;2023-04-07T08:48:54;97708.50;;;7.08;63.81
73085;BME280;62974;49.460;10.892;2023-04-07T08:51:27;97720.13;;;7.30;63.81
73085;BME280;62974;49.460;10.892;2023-04-07T08:54:02;97710.28;;;7.16;63.90
73085;BME280;62974;49.460;10.892;2023-04-07T08:56:32;97714.28;;;7.64;62.95
73085;BME280;62974;49.460;10.892;2023-04-07T08:59:00;97720.53;;;7.41;60.95
73085;BME280;62974;49.460;10.892;2023-04-07T09:01:28;97717.41;;;7.52;61.63
73085;BME280;62974;49.460;10.892;2023-04-07T09:03:57;97721.59;;;7.18;62.34
73085;BME280;62974;49.460;10.892;2023-04-07T09:06:27;97722.09;;;7.36;61.76
73085;BME280;62974;49.460;10.892;2023-04-07T09:08:57;97722.09;;;7.50;61.96
73085;BME280;62974;49.460;10.892;2023-04-07T09:11:25;97710.69;;;7.71;61.49
73085;BME280;62974;49.460;10.892;2023-04-07T09:13:55;97717.31;;;7.75;61.17
73085;BME280;62974;49.460;10.892;2023-04-07T09:16:24;97715.47;;;7.90;61.03
73085;BME280;62974;49.460;10.892;2023-04-07T09:18:58;97711.34;;;7.88;59.55
73085;BME280;62974;49.460;10.892;2023-04-07T09:21:46;97708.94;;;7.64;59.64
73085;BME280;62974;49.460;10.892;2023-04-07T09:24:21;97713.47;;;7.63;60.72
73085;BME280;62974;49.460;10.892;2023-04-07T09:26:49;97708.03;;;8.22;60.00
73085;BME280;62974;49.460;10.892;2023-04-07T09:29:19;97716.13;;;7.63;60.73
73085;BME280;62974;49.460;10.892;2023-04-07T09:31:50;97699.06;;;7.79;59.44
73085;BME280;62974;49.460;10.892;2023-04-07T09:34:25;97709.47;;;7.74;60.55
73085;BME280;62974;49.460;10.892;2023-04-07T09:36:55;97708.81;;;8.01;61.09
73085;BME280;62974;49.460;10.892;2023-04-07T09:39:23;97706.72;;;7.67;61.87
73085;BME280;62974;49.460;10.892;2023-04-07T09:41:51;97722.28;;;7.93;62.41
73085;BME280;62974;49.460;10.892;2023-04-07T09:44:19;97713.13;;;8.17;61.52
73085;BME280;62974;49.460;10.892;2023-04-07T09:46:51;97694.88;;;8.56;58.25
73085;BME280;62974;49.460;10.892;2023-04-07T09:49:19;97701.88;;;8.36;59.22
73085;BME280;62974;49.460;10.892;2023-04-07T09:51:55;97701.06;;;8.06;59.77
73085;BME280;62974;49.460;10.892;2023-04-07T09:54:31;97702.31;;;8.39;58.67
73085;BME280;62974;49.460;10.892;2023-04-07T09:57:03;97702.28;;;8.03;59.09
73085;BME280;62974;49.460;10.892;2023-04-07T09:59:36;97704.84;;;8.12;58.09
73085;BME280;62974;49.460;10.892;2023-04-07T10:02:06;97697.59;;;8.41;58.82
73085;BME280;62974;49.460;10.892;2023-04-07T10:04:33;97696.69;;;8.34;58.32
73085;BME280;62974;49.460;10.892;2023-04-07T10:07:04;97706.88;;;8.10;60.61
73085;BME280;62974;49.460;10.892;2023-04-07T10:09:32;97702.41;;;8.17;60.61
73085;BME280;62974;49.460;10.892;2023-04-07T10:11:59;97700.72;;;8.45;60.40
73085;BME280;62974;49.460;10.892;2023-04-07T10:14:31;97700.69;;;8.24;59.01
73085;BME280;62974;49.460;10.892;2023-04-07T10:17:02;97696.34;;;8.23;58.73
73085;BME280;62974;49.460;10.892;2023-04-07T10:19:31;97701.66;;;8.37;59.06
73085;BME280;62974;49.460;10.892;2023-04-07T10:22:01;97711.38;;;8.24;61.14
73085;BME280;62974;49.460;10.892;2023-04-07T10:24:41;97706.81;;;8.24;60.22
73085;BME280;62974;49.460;10.892;2023-04-07T10:27:13;97708.03;;;8.22;59.93
73085;BME280;62974;49.460;10.892;2023-04-07T10:29:45;97703.63;;;8.29;58.97
73085;BME280;62974;49.460;10.892;2023-04-07T10:32:14;97699.31;;;8.49;58.48
73085;BME280;62974;49.460;10.892;2023-04-07T10:34:55;97690.56;;;8.40;58.63
73085;BME280;62974;49.460;10.892;2023-04-07T10:37:24;97699.47;;;8.62;58.25
73085;BME280;62974;49.460;10.892;2023-04-07T10:40:28;97696.97;;;8.82;58.22
73085;BME280;62974;49.460;10.892;2023-04-07T10:42:56;97691.44;;;8.62;59.12
73085;BME280;62974;49.460;10.892;2023-04-07T10:45:52;97688.91;;;8.75;56.74
73085;BME280;62974;49.460;10.892;2023-04-07T10:48:23;97695.84;;;8.70;57.66
73085;BME280;62974;49.460;10.892;2023-04-07T10:51:15;97699.94;;;9.15;55.39
73085;BME280;62974;49.460;10.892;2023-04-07T10:57:10;97694.97;;;9.12;55.36
73085;BME280;62974;49.460;10.892;2023-04-07T10:59:41;97697.69;;;8.90;56.20
73085;BME280;62974;49.460;10.892;2023-04-07T11:02:32;97696.66;;;8.91;56.29
73085;BME280;62974;49.460;10.892;2023-04-07T11:05:00;97701.72;;;9.08;55.35
73085;BME280;62974;49.460;10.892;2023-04-07T11:07:49;97702.06;;;8.98;56.18
73085;BME280;62974;49.460;10.892;2023-04-07T11:10:17;97697.81;;;9.04;56.66
73085;BME280;62974;49.460;10.892;2023-04-07T11:13:03;97703.22;;;9.10;55.94
73085;BME280;62974;49.460;10.892;2023-04-07T11:15:32;97697.06;;;9.16;56.22
73085;BME280;62974;49.460;10.892;2023-04-07T11:18:25;97695.78;;;9.12;56.55
73085;BME280;62974;49.460;10.892;2023-04-07T11:20:54;97696.16;;;9.30;56.64
73085;BME280;62974;49.460;10.892;2023-04-07T11:23:23;97692.13;;;9.48;56.70
73085;BME280;62974;49.460;10.892;2023-04-07T11:25:58;97693.22;;;9.25;55.80
73085;BME280;62974;49.460;10.892;2023-04-07T11:28:29;97683.22;;;9.40;55.01
73085;BME280;62974;49.460;10.892;2023-04-07T11:30:57;97690.50;;;9.47;55.55
73085;BME280;62974;49.460;10.892;2023-04-07T11:33:25;97670.59;;;9.62;54.96
73085;BME280;62974;49.460;10.892;2023-04-07T11:35:55;97677.13;;;9.53;54.57
73085;BME280;62974;49.460;10.892;2023-04-07T11:38:24;97678.91;;;9.74;54.95
73085;BME280;62974;49.460;10.892;2023-04-07T11:40:53;97679.34;;;9.77;54.53
73085;BME280;62974;49.460;10.892;2023-04-07T11:43:22;97667.88;;;10.03;54.35
73085;BME280;62974;49.460;10.892;2023-04-07T11:46:05;97679.94;;;10.94;50.43
73085;BME280;62974;49.460;10.892;2023-04-07T11:48:34;97681.34;;;10.10;53.73
73085;BME280;62974;49.460;10.892;2023-04-07T11:51:02;97675.75;;;10.65;53.63
73085;BME280;62974;49.460;10.892;2023-04-07T11:53:31;97671.97;;;10.33;54.00
73085;BME280;62974;49.460;10.892;2023-04-07T11:56:00;97662.13;;;10.80;51.03
73085;BME280;62974;49.460;10.892;2023-04-07T11:58:28;97677.38;;;10.53;53.25
73085;BME280;62974;49.460;10.892;2023-04-07T12:00:56;97675.19;;;11.09;49.18
73085;BME280;62974;49.460;10.892;2023-04-07T12:03:25;97676.84;;;10.97;52.00
73085;BME280;62974;49.460;10.892;2023-04-07T12:05:53;97669.34;;;10.53;51.09
73085;BME280;62974;49.460;10.892;2023-04-07T12:08:20;97668.91;;;10.50;52.88
73085;BME280;62974;49.460;10.892;2023-04-07T12:10:48;97668.56;;;11.18;51.63
73085;BME280;62974;49.460;10.892;2023-04-07T12:13:29;97666.88;;;11.44;50.46
73085;BME280;62974;49.460;10.892;2023-04-07T12:15:57;97669.56;;;10.91;52.71
73085;BME280;62974;49.460;10.892;2023-04-07T12:18:27;97677.44;;;10.99;53.81
73085;BME280;62974;49.460;10.892;2023-04-07T12:20:55;97678.91;;;11.02;54.34
73085;BME280;62974;49.460;10.892;2023-04-07T12:23:24;97675.16;;;11.49;50.96
73085;BME280;62974;49.460;10.892;2023-04-07T12:25:52;97668.97;;;11.28;52.02
73085;BME280;62974;49.460;10.892;2023-04-07T12:28:20;97677.22;;;11.40;53.64
73085;BME280;62974;49.460;10.892;2023-04-07T12:30:47;97678.47;;;11.05;52.96
73085;BME280;62974;49.460;10.892;2023-04-07T12:33:15;97680.75;;;11.08;52.36
73085;BME280;62974;49.460;10.892;2023-04-07T12:35:44;97680.09;;;11.39;53.58
73085;BME280;62974;49.460;10.892;2023-04-07T12:38:11;97679.28;;;11.31;53.57
73085;BME280;62974;49.460;10.892;2023-04-07T12:40:39;97680.75;;;11.27;53.67
73085;BME280;62974;49.460;10.892;2023-04-07T12:43:06;97677.84;;;11.03;54.46
73085;BME280;62974;49.460;10.892;2023-04-07T12:45:34;97681.38;;;11.23;54.51
73085;BME280;62974;49.460;10.892;2023-04-07T12:48:02;97679.94;;;11.20;52.07
73085;BME280;62974;49.460;10.892;2023-04-07T12:50:29;97682.84;;;11.25;53.42
73085;BME280;62974;49.460;10.892;2023-04-07T12:52:58;97680.34;;;10.98;55.06
73085;BME280;62974;49.460;10.892;2023-04-07T12:55:28;97684.00;;;10.51;53.75
73085;BME280;62974;49.460;10.892;2023-04-07T12:57:58;97685.25;;;10.68;55.84
73085;BME280;62974;49.460;10.892;2023-04-07T13:00:26;97685.47;;;10.73;55.08
73085;BME280;62974;49.460;10.892;2023-04-07T13:02:53;97681.34;;;10.70;56.17
73085;BME280;62974;49.460;10.892;2023-04-07T13:05:22;97693.44;;;10.40;55.46
73085;BME280;62974;49.460;10.892;2023-04-07T13:07:49;97686.03;;;10.42;55.45
73085;BME280;62974;49.460;10.892;2023-04-07T13:10:18;97685.41;;;10.40;54.68
73085;BME280;62974;49.460;10.892;2023-04-07T13:12:47;97685.47;;;10.12;55.16
73085;BME280;62974;49.460;10.892;2023-04-07T13:15:14;97685.81;;;9.96;55.88
73085;BME280;62974;49.460;10.892;2023-04-07T13:17:42;97691.66;;;10.13;57.53